sensor_id;sensor_type;location;lat;lon;timestamp;P1;durP1;ratioP1;P2;durP2;ratioP2
51326;SDS011;37412;52.836;6.362;2023-04-06T00:02:16;10.05;;;7.05;;
51326;SDS011;37412;52.836;6.362;2023-04-06T00:05:03;9.77;;;7.35;;
51326;SDS011;37412;52.836;6.362;2023-04-06T00:07:49;9.32;;;7.13;;
51326;SDS011;37412;52.836;6.362;2023-04-06T00:10:35;10.30;;;7.38;;
51326;SDS011;37412;52.836;6.362;2023-04-06T00:13:21;8.40;;;6.97;;
51326;SDS011;37412;52.836;6.362;2023-04-06T00:16:07;12.05;;;7.43;;
51326;SDS011;37412;52.836;6.362;2023-04-06T00:18:53;10.25;;;7.22;;
51326;SDS011;37412;52.836;6.362;2023-04-06T00:21:39;8.95;;;7.07;;
51326;SDS011;37412;52.836;6.362;2023-04-06T00:24:25;8.52;;;7.32;;
51326;SDS011;37412;52.836;6.362;2023-04-06T00:27:11;9.98;;;7.05;;
51326;SDS011;37412;52.836;6.362;2023-04-06T00:29:57;12.40;;;7.78;;
51326;SDS011;37412;52.836;6.362;2023-04-06T00:32:46;8.65;;;7.75;;
51326;SDS011;37412;52.836;6.362;2023-04-06T00:35:32;10.93;;;7.70;;
51326;SDS011;37412;52.836;6.362;2023-04-06T00:38:18;8.95;;;7.28;;
51326;SDS011;37412;52.836;6.362;2023-04-06T00:41:04;9.27;;;7.22;;
51326;SDS011;37412;52.836;6.362;2023-04-06T00:43:50;10.98;;;7.78;;
51326;SDS011;37412;52.836;6.362;2023-04-06T00:46:36;10.02;;;7.85;;
51326;SDS011;37412;52.836;6.362;2023-04-06T00:49:22;8.63;;;7.70;;
51326;SDS011;37412;52.836;6.362;2023-04-06T00:52:08;12.25;;;7.70;;
51326;SDS011;37412;52.836;6.362;2023-04-06T00:54:54;10.95;;;7.88;;
51326;SDS011;37412;52.836;6.362;2023-04-06T00:57:40;11.68;;;7.90;;
51326;SDS011;37412;52.836;6.362;2023-04-06T01:00:26;14.05;;;7.93;;
51326;SDS011;37412;52.836;6.362;2023-04-06T01:03:12;9.32;;;8.20;;
51326;SDS011;37412;52.836;6.362;2023-04-06T01:05:59;10.02;;;7.40;;
51326;SDS011;37412;52.836;6.362;2023-04-06T01:08:45;9.65;;;7.65;;
51326;SDS011;37412;52.836;6.362;2023-04-06T01:11:31;11.98;;;8.43;;
51326;SDS011;37412;52.836;6.362;2023-04-06T01:14:17;8.50;;;7.55;;
51326;SDS011;37412;52.836;6.362;2023-04-06T01:17:03;15.77;;;8.48;;
51326;SDS011;37412;52.836;6.362;2023-04-06T01:19:49;13.35;;;8.07;;
51326;SDS011;37412;52.836;6.362;2023-04-06T01:22:36;10.82;;;8.07;;
51326;SDS011;37412;52.836;6.362;2023-04-06T01:25:22;12.95;;;8.40;;
51326;SDS011;37412;52.836;6.362;2023-04-06T01:28:08;10.25;;;8.80;;
51326;SDS011;37412;52.836;6.362;2023-04-06T01:30:54;11.63;;;8.65;;
51326;SDS011;37412;52.836;6.362;2023-04-06T01:33:40;11.55;;;7.90;;
51326;SDS011;37412;52.836;6.362;2023-04-06T01:36:26;10.85;;;8.88;;
51326;SDS011;37412;52.836;6.362;2023-04-06T01:39:12;11.55;;;8.75;;
51326;SDS011;37412;52.836;6.362;2023-04-06T01:41:57;10.25;;;8.43;;
51326;SDS011;37412;52.836;6.362;2023-04-06T01:44:43;14.00;;;8.75;;
51326;SDS011;37412;52.836;6.362;2023-04-06T01:47:29;12.27;;;8.63;;
51326;SDS011;37412;52.836;6.362;2023-04-06T01:50:15;15.18;;;9.38;;
51326;SDS011;37412;52.836;6.362;2023-04-06T01:53:01;12.05;;;8.35;;
51326;SDS011;37412;52.836;6.362;2023-04-06T01:55:47;12.85;;;8.40;;
51326;SDS011;37412;52.836;6.362;2023-04-06T01:58:33;11.68;;;8.98;;
51326;SDS011;37412;52.836;6.362;2023-04-06T02:01:19;11.88;;;8.82;;
51326;SDS011;37412;52.836;6.362;2023-04-06T02:04:05;10.10;;;8.75;;
51326;SDS011;37412;52.836;6.362;2023-04-06T02:06:51;11.90;;;8.98;;
51326;SDS011;37412;52.836;6.362;2023-04-06T02:09:36;12.40;;;8.73;;
51326;SDS011;37412;52.836;6.362;2023-04-06T02:12:22;12.00;;;9.00;;
51326;SDS011;37412;52.836;6.362;2023-04-06T02:15:09;10.88;;;8.93;;
51326;SDS011;37412;52.836;6.362;2023-04-06T02:17:55;10.77;;;8.43;;
51326;SDS011;37412;52.836;6.362;2023-04-06T02:20:42;11.68;;;9.38;;
51326;SDS011;37412;52.836;6.362;2023-04-06T02:23:28;13.10;;;8.93;;
51326;SDS011;37412;52.836;6.362;2023-04-06T02:26:15;13.95;;;9.55;;
51326;SDS011;37412;52.836;6.362;2023-04-06T02:29:01;12.45;;;8.82;;
51326;SDS011;37412;52.836;6.362;2023-04-06T02:31:47;10.80;;;9.00;;
51326;SDS011;37412;52.836;6.362;2023-04-06T02:34:33;11.68;;;9.15;;
51326;SDS011;37412;52.836;6.362;2023-04-06T02:37:19;13.15;;;9.05;;
51326;SDS011;37412;52.836;6.362;2023-04-06T02:40:05;13.73;;;9.85;;
51326;SDS011;37412;52.836;6.362;2023-04-06T02:42:52;12.75;;;8.95;;
51326;SDS011;37412;52.836;6.362;2023-04-06T02:45:38;12.05;;;9.40;;
51326;SDS011;37412;52.836;6.362;2023-04-06T02:48:23;12.40;;;9.55;;
51326;SDS011;37412;52.836;6.362;2023-04-06T02:51:09;12.13;;;9.50;;
51326;SDS011;37412;52.836;6.362;2023-04-06T02:53:55;12.52;;;9.55;;
51326;SDS011;37412;52.836;6.362;2023-04-06T02:56:41;13.70;;;9.85;;
51326;SDS011;37412;52.836;6.362;2023-04-06T02:59:27;11.63;;;9.43;;
51326;SDS011;37412;52.836;6.362;2023-04-06T03:02:13;13.35;;;9.52;;
51326;SDS011;37412;52.836;6.362;2023-04-06T03:04:59;15.88;;;9.93;;
51326;SDS011;37412;52.836;6.362;2023-04-06T03:07:45;13.85;;;10.95;;
51326;SDS011;37412;52.836;6.362;2023-04-06T03:10:31;15.30;;;11.50;;
51326;SDS011;37412;52.836;6.362;2023-04-06T03:13:16;15.18;;;10.57;;
51326;SDS011;37412;52.836;6.362;2023-04-06T03:16:02;18.15;;;11.20;;
51326;SDS011;37412;52.836;6.362;2023-04-06T03:18:49;17.05;;;12.80;;
51326;SDS011;37412;52.836;6.362;2023-04-06T03:21:35;16.90;;;12.65;;
51326;SDS011;37412;52.836;6.362;2023-04-06T03:24:20;15.75;;;12.55;;
51326;SDS011;37412;52.836;6.362;2023-04-06T03:27:06;16.00;;;12.13;;
51326;SDS011;37412;52.836;6.362;2023-04-06T03:29:52;17.98;;;13.07;;
51326;SDS011;37412;52.836;6.362;2023-04-06T03:32:38;17.92;;;12.07;;
51326;SDS011;37412;52.836;6.362;2023-04-06T03:35:24;16.88;;;12.18;;
51326;SDS011;37412;52.836;6.362;2023-04-06T03:38:10;18.55;;;11.75;;
51326;SDS011;37412;52.836;6.362;2023-04-06T03:40:56;17.65;;;12.88;;
51326;SDS011;37412;52.836;6.362;2023-04-06T03:43:42;18.33;;;13.00;;
51326;SDS011;37412;52.836;6.362;2023-04-06T03:46:28;19.42;;;12.65;;
51326;SDS011;37412;52.836;6.362;2023-04-06T03:49:14;16.60;;;12.00;;
51326;SDS011;37412;52.836;6.362;2023-04-06T03:52:00;15.45;;;11.35;;
51326;SDS011;37412;52.836;6.362;2023-04-06T03:54:46;16.92;;;12.02;;
51326;SDS011;37412;52.836;6.362;2023-04-06T03:57:32;16.48;;;11.43;;
51326;SDS011;37412;52.836;6.362;2023-04-06T04:00:18;15.05;;;11.50;;
51326;SDS011;37412;52.836;6.362;2023-04-06T04:03:04;15.30;;;10.95;;
51326;SDS011;37412;52.836;6.362;2023-04-06T04:05:50;14.50;;;11.10;;
51326;SDS011;37412;52.836;6.362;2023-04-06T04:08:36;13.75;;;10.68;;
51326;SDS011;37412;52.836;6.362;2023-04-06T04:11:22;17.20;;;11.18;;
51326;SDS011;37412;52.836;6.362;2023-04-06T04:14:08;13.85;;;10.98;;
51326;SDS011;37412;52.836;6.362;2023-04-06T04:16:54;13.85;;;10.82;;
51326;SDS011;37412;52.836;6.362;2023-04-06T04:19:40;15.82;;;10.95;;
51326;SDS011;37412;52.836;6.362;2023-04-06T04:22:26;14.68;;;10.95;;
51326;SDS011;37412;52.836;6.362;2023-04-06T04:25:13;13.88;;;10.55;;
51326;SDS011;37412;52.836;6.362;2023-04-06T04:27:59;15.80;;;10.35;;
51326;SDS011;37412;52.836;6.362;2023-04-06T04:30:45;14.13;;;10.00;;
51326;SDS011;37412;52.836;6.362;2023-04-06T04:33:31;15.57;;;10.32;;
51326;SDS011;37412;52.836;6.362;2023-04-06T04:36:17;13.98;;;9.70;;
51326;SDS011;37412;52.836;6.362;2023-04-06T04:39:03;15.57;;;10.23;;
51326;SDS011;37412;52.836;6.362;2023-04-06T04:41:49;14.25;;;9.95;;
51326;SDS011;37412;52.836;6.362;2023-04-06T04:44:35;14.93;;;11.10;;
51326;SDS011;37412;52.836;6.362;2023-04-06T04:47:21;14.52;;;10.25;;
51326;SDS011;37412;52.836;6.362;2023-04-06T04:50:07;12.70;;;10.40;;
51326;SDS011;37412;52.836;6.362;2023-04-06T04:52:53;16.73;;;10.40;;
51326;SDS011;37412;52.836;6.362;2023-04-06T04:55:39;12.95;;;10.70;;
51326;SDS011;37412;52.836;6.362;2023-04-06T04:58:26;12.60;;;10.32;;
51326;SDS011;37412;52.836;6.362;2023-04-06T05:01:12;12.93;;;9.93;;
51326;SDS011;37412;52.836;6.362;2023-04-06T05:03:57;13.40;;;10.43;;
51326;SDS011;37412;52.836;6.362;2023-04-06T05:06:43;14.23;;;10.52;;
51326;SDS011;37412;52.836;6.362;2023-04-06T05:09:29;15.25;;;10.50;;
51326;SDS011;37412;52.836;6.362;2023-04-06T05:12:16;14.18;;;10.50;;
51326;SDS011;37412;52.836;6.362;2023-04-06T05:15:03;16.35;;;11.15;;
51326;SDS011;37412;52.836;6.362;2023-04-06T05:17:50;13.20;;;10.10;;
51326;SDS011;37412;52.836;6.362;2023-04-06T05:20:36;15.40;;;10.55;;
51326;SDS011;37412;52.836;6.362;2023-04-06T05:23:23;18.00;;;11.25;;
51326;SDS011;37412;52.836;6.362;2023-04-06T05:26:09;17.50;;;11.85;;
51326;SDS011;37412;52.836;6.362;2023-04-06T05:28:55;14.68;;;10.95;;
51326;SDS011;37412;52.836;6.362;2023-04-06T05:31:41;15.30;;;11.15;;
51326;SDS011;37412;52.836;6.362;2023-04-06T05:34:26;16.05;;;11.40;;
51326;SDS011;37412;52.836;6.362;2023-04-06T05:37:12;18.15;;;11.93;;
51326;SDS011;37412;52.836;6.362;2023-04-06T05:39:58;15.25;;;10.88;;
51326;SDS011;37412;52.836;6.362;2023-04-06T05:42:44;15.00;;;11.27;;
51326;SDS011;37412;52.836;6.362;2023-04-06T05:45:30;14.63;;;10.73;;
51326;SDS011;37412;52.836;6.362;2023-04-06T05:48:16;18.05;;;10.80;;
51326;SDS011;37412;52.836;6.362;2023-04-06T05:51:02;14.52;;;12.00;;
51326;SDS011;37412;52.836;6.362;2023-04-06T05:53:54;19.98;;;11.70;;
51326;SDS011;37412;52.836;6.362;2023-04-06T05:56:40;14.98;;;11.20;;
51326;SDS011;37412;52.836;6.362;2023-04-06T05:59:26;17.90;;;10.70;;
51326;SDS011;37412;52.836;6.362;2023-04-06T06:02:12;16.02;;;10.73;;
51326;SDS011;37412;52.836;6.362;2023-04-06T06:04:58;14.70;;;10.57;;
51326;SDS011;37412;52.836;6.362;2023-04-06T06:07:44;19.05;;;11.35;;
51326;SDS011;37412;52.836;6.362;2023-04-06T06:10:30;15.43;;;11.57;;
51326;SDS011;37412;52.836;6.362;2023-04-06T06:13:16;15.15;;;11.13;;
51326;SDS011;37412;52.836;6.362;2023-04-06T06:16:03;20.45;;;11.90;;
51326;SDS011;37412;52.836;6.362;2023-04-06T06:18:50;17.85;;;11.90;;
51326;SDS011;37412;52.836;6.362;2023-04-06T06:21:36;18.33;;;11.40;;
51326;SDS011;37412;52.836;6.362;2023-04-06T06:24:22;20.23;;;11.65;;
51326;SDS011;37412;52.836;6.362;2023-04-06T06:27:08;15.07;;;11.07;;
51326;SDS011;37412;52.836;6.362;2023-04-06T06:29:54;15.43;;;11.13;;
51326;SDS011;37412;52.836;6.362;2023-04-06T06:32:40;16.13;;;11.68;;
51326;SDS011;37412;52.836;6.362;2023-04-06T06:35:26;17.15;;;11.18;;
51326;SDS011;37412;52.836;6.362;2023-04-06T06:38:12;15.15;;;10.88;;
51326;SDS011;37412;52.836;6.362;2023-04-06T06:40:57;16.70;;;11.40;;
51326;SDS011;37412;52.836;6.362;2023-04-06T06:43:43;19.23;;;11.88;;
51326;SDS011;37412;52.836;6.362;2023-04-06T06:46:30;16.80;;;11.85;;
51326;SDS011;37412;52.836;6.362;2023-04-06T06:49:15;16.88;;;11.50;;
51326;SDS011;37412;52.836;6.362;2023-04-06T06:52:01;17.25;;;11.63;;
51326;SDS011;37412;52.836;6.362;2023-04-06T06:54:47;15.20;;;11.43;;
51326;SDS011;37412;52.836;6.362;2023-04-06T06:57:33;18.55;;;11.70;;
51326;SDS011;37412;52.836;6.362;2023-04-06T07:00:19;17.70;;;11.60;;
51326;SDS011;37412;52.836;6.362;2023-04-06T07:03:06;19.65;;;12.10;;
51326;SDS011;37412;52.836;6.362;2023-04-06T07:05:52;19.85;;;11.30;;
51326;SDS011;37412;52.836;6.362;2023-04-06T07:08:38;18.13;;;11.95;;
51326;SDS011;37412;52.836;6.362;2023-04-06T07:11:24;17.23;;;11.85;;
51326;SDS011;37412;52.836;6.362;2023-04-06T07:14:10;17.40;;;11.98;;
51326;SDS011;37412;52.836;6.362;2023-04-06T07:16:57;17.98;;;12.05;;
51326;SDS011;37412;52.836;6.362;2023-04-06T07:19:42;15.68;;;12.00;;
51326;SDS011;37412;52.836;6.362;2023-04-06T07:22:28;15.70;;;11.95;;
51326;SDS011;37412;52.836;6.362;2023-04-06T07:25:16;16.02;;;12.02;;
51326;SDS011;37412;52.836;6.362;2023-04-06T07:28:06;18.67;;;12.60;;
51326;SDS011;37412;52.836;6.362;2023-04-06T07:30:55;18.55;;;11.95;;
51326;SDS011;37412;52.836;6.362;2023-04-06T07:33:41;17.63;;;11.88;;
51326;SDS011;37412;52.836;6.362;2023-04-06T07:36:27;16.00;;;11.73;;
51326;SDS011;37412;52.836;6.362;2023-04-06T07:39:13;21.55;;;12.85;;
51326;SDS011;37412;52.836;6.362;2023-04-06T07:41:59;16.38;;;12.13;;
51326;SDS011;37412;52.836;6.362;2023-04-06T07:44:45;17.15;;;12.15;;
51326;SDS011;37412;52.836;6.362;2023-04-06T07:55:51;16.42;;;11.55;;
51326;SDS011;37412;52.836;6.362;2023-04-06T07:58:37;15.27;;;11.50;;
51326;SDS011;37412;52.836;6.362;2023-04-06T08:01:23;14.60;;;11.60;;
51326;SDS011;37412;52.836;6.362;2023-04-06T08:04:09;15.98;;;12.27;;
51326;SDS011;37412;52.836;6.362;2023-04-06T08:06:55;17.25;;;11.82;;
51326;SDS011;37412;52.836;6.362;2023-04-06T08:09:41;16.33;;;11.70;;
51326;SDS011;37412;52.836;6.362;2023-04-06T08:12:28;18.15;;;12.05;;
51326;SDS011;37412;52.836;6.362;2023-04-06T08:15:14;16.02;;;11.90;;
51326;SDS011;37412;52.836;6.362;2023-04-06T08:18:00;17.42;;;12.30;;
51326;SDS011;37412;52.836;6.362;2023-04-06T08:20:46;19.27;;;12.18;;
51326;SDS011;37412;52.836;6.362;2023-04-06T08:23:32;16.33;;;12.23;;
51326;SDS011;37412;52.836;6.362;2023-04-06T08:26:18;17.98;;;11.88;;
51326;SDS011;37412;52.836;6.362;2023-04-06T08:29:04;16.55;;;11.57;;
51326;SDS011;37412;52.836;6.362;2023-04-06T08:31:52;16.40;;;11.32;;
51326;SDS011;37412;52.836;6.362;2023-04-06T08:34:38;20.20;;;12.85;;
51326;SDS011;37412;52.836;6.362;2023-04-06T08:37:24;19.85;;;12.48;;
51326;SDS011;37412;52.836;6.362;2023-04-06T08:40:12;17.35;;;12.23;;
51326;SDS011;37412;52.836;6.362;2023-04-06T08:43:00;18.17;;;12.52;;
51326;SDS011;37412;52.836;6.362;2023-04-06T08:45:49;18.30;;;14.07;;
51326;SDS011;37412;52.836;6.362;2023-04-06T08:48:35;18.27;;;14.03;;
51326;SDS011;37412;52.836;6.362;2023-04-06T08:51:25;18.42;;;14.02;;
51326;SDS011;37412;52.836;6.362;2023-04-06T08:54:12;19.17;;;14.10;;
51326;SDS011;37412;52.836;6.362;2023-04-06T08:56:58;19.00;;;14.68;;
51326;SDS011;37412;52.836;6.362;2023-04-06T08:59:44;17.92;;;14.48;;
51326;SDS011;37412;52.836;6.362;2023-04-06T09:02:30;19.70;;;15.30;;
51326;SDS011;37412;52.836;6.362;2023-04-06T09:05:17;20.92;;;15.55;;
51326;SDS011;37412;52.836;6.362;2023-04-06T09:08:03;18.83;;;15.30;;
51326;SDS011;37412;52.836;6.362;2023-04-06T09:10:49;18.02;;;15.27;;
51326;SDS011;37412;52.836;6.362;2023-04-06T09:13:50;21.75;;;16.25;;
51326;SDS011;37412;52.836;6.362;2023-04-06T09:16:44;20.73;;;16.33;;
51326;SDS011;37412;52.836;6.362;2023-04-06T09:19:30;23.50;;;16.70;;
51326;SDS011;37412;52.836;6.362;2023-04-06T09:22:16;22.92;;;16.65;;
51326;SDS011;37412;52.836;6.362;2023-04-06T09:25:03;22.83;;;17.13;;
51326;SDS011;37412;52.836;6.362;2023-04-06T09:28:03;22.13;;;16.67;;
51326;SDS011;37412;52.836;6.362;2023-04-06T09:30:49;20.50;;;17.02;;
51326;SDS011;37412;52.836;6.362;2023-04-06T09:33:41;21.38;;;17.05;;
51326;SDS011;37412;52.836;6.362;2023-04-06T09:36:34;21.25;;;17.10;;
51326;SDS011;37412;52.836;6.362;2023-04-06T09:39:23;23.50;;;17.65;;
51326;SDS011;37412;52.836;6.362;2023-04-06T09:42:11;20.90;;;16.95;;
51326;SDS011;37412;52.836;6.362;2023-04-06T09:45:08;21.98;;;17.45;;
51326;SDS011;37412;52.836;6.362;2023-04-06T09:47:55;21.75;;;17.45;;
51326;SDS011;37412;52.836;6.362;2023-04-06T09:50:41;22.60;;;18.00;;
51326;SDS011;37412;52.836;6.362;2023-04-06T09:53:27;23.08;;;17.45;;
51326;SDS011;37412;52.836;6.362;2023-04-06T09:56:16;26.00;;;17.88;;
51326;SDS011;37412;52.836;6.362;2023-04-06T09:59:08;23.67;;;18.15;;
51326;SDS011;37412;52.836;6.362;2023-04-06T10:01:58;23.98;;;18.45;;
51326;SDS011;37412;52.836;6.362;2023-04-06T10:04:53;23.05;;;18.77;;
51326;SDS011;37412;52.836;6.362;2023-04-06T10:07:43;21.90;;;18.70;;
51326;SDS011;37412;52.836;6.362;2023-04-06T10:10:30;22.02;;;17.73;;
51326;SDS011;37412;52.836;6.362;2023-04-06T10:13:16;24.57;;;18.67;;
51326;SDS011;37412;52.836;6.362;2023-04-06T10:16:05;23.25;;;18.60;;
51326;SDS011;37412;52.836;6.362;2023-04-06T10:18:54;21.88;;;18.38;;
51326;SDS011;37412;52.836;6.362;2023-04-06T10:21:53;25.35;;;18.33;;
51326;SDS011;37412;52.836;6.362;2023-04-06T10:24:43;25.15;;;19.27;;
51326;SDS011;37412;52.836;6.362;2023-04-06T10:27:29;23.30;;;18.80;;
51326;SDS011;37412;52.836;6.362;2023-04-06T10:30:15;24.15;;;19.60;;
51326;SDS011;37412;52.836;6.362;2023-04-06T10:33:12;26.15;;;19.85;;
51326;SDS011;37412;52.836;6.362;2023-04-06T10:36:09;25.33;;;19.88;;
51326;SDS011;37412;52.836;6.362;2023-04-06T10:39:01;24.58;;;19.98;;
51326;SDS011;37412;52.836;6.362;2023-04-06T10:41:48;27.38;;;21.17;;
51326;SDS011;37412;52.836;6.362;2023-04-06T10:44:41;25.35;;;20.58;;
51326;SDS011;37412;52.836;6.362;2023-04-06T10:47:28;28.17;;;20.48;;
51326;SDS011;37412;52.836;6.362;2023-04-06T10:50:25;25.98;;;20.20;;
51326;SDS011;37412;52.836;6.362;2023-04-06T10:53:11;26.38;;;20.58;;
51326;SDS011;37412;52.836;6.362;2023-04-06T10:56:07;27.30;;;22.33;;
51326;SDS011;37412;52.836;6.362;2023-04-06T10:58:56;26.93;;;22.10;;
51326;SDS011;37412;52.836;6.362;2023-04-06T11:01:44;30.17;;;22.27;;
51326;SDS011;37412;52.836;6.362;2023-04-06T11:04:30;28.38;;;22.67;;
51326;SDS011;37412;52.836;6.362;2023-04-06T11:07:22;26.77;;;21.85;;
51326;SDS011;37412;52.836;6.362;2023-04-06T11:10:09;27.17;;;22.27;;
51326;SDS011;37412;52.836;6.362;2023-04-06T11:12:55;27.77;;;22.20;;
51326;SDS011;37412;52.836;6.362;2023-04-06T11:15:41;28.02;;;22.50;;
51326;SDS011;37412;52.836;6.362;2023-04-06T11:18:27;27.63;;;22.42;;
51326;SDS011;37412;52.836;6.362;2023-04-06T11:21:13;29.33;;;23.17;;
51326;SDS011;37412;52.836;6.362;2023-04-06T11:26:59;29.15;;;23.45;;
51326;SDS011;37412;52.836;6.362;2023-04-06T11:29:46;28.52;;;23.02;;
51326;SDS011;37412;52.836;6.362;2023-04-06T11:32:39;29.17;;;22.63;;
51326;SDS011;37412;52.836;6.362;2023-04-06T11:35:28;29.75;;;22.77;;
51326;SDS011;37412;52.836;6.362;2023-04-06T11:38:18;29.50;;;23.15;;
51326;SDS011;37412;52.836;6.362;2023-04-06T11:41:05;32.37;;;23.43;;
51326;SDS011;37412;52.836;6.362;2023-04-06T11:43:54;30.23;;;21.88;;
51326;SDS011;37412;52.836;6.362;2023-04-06T11:46:50;29.13;;;22.97;;
51326;SDS011;37412;52.836;6.362;2023-04-06T11:49:38;30.35;;;22.30;;
51326;SDS011;37412;52.836;6.362;2023-04-06T11:52:26;29.10;;;22.98;;
51326;SDS011;37412;52.836;6.362;2023-04-06T11:55:14;28.75;;;23.50;;
51326;SDS011;37412;52.836;6.362;2023-04-06T11:58:01;29.35;;;22.73;;
51326;SDS011;37412;52.836;6.362;2023-04-06T12:00:51;30.73;;;23.35;;
51326;SDS011;37412;52.836;6.362;2023-04-06T12:03:37;28.37;;;22.33;;
51326;SDS011;37412;52.836;6.362;2023-04-06T12:06:22;29.77;;;23.80;;
51326;SDS011;37412;52.836;6.362;2023-04-06T12:09:08;28.13;;;23.17;;
51326;SDS011;37412;52.836;6.362;2023-04-06T12:11:54;28.65;;;23.23;;
51326;SDS011;37412;52.836;6.362;2023-04-06T12:14:41;31.50;;;23.47;;
51326;SDS011;37412;52.836;6.362;2023-04-06T12:17:27;27.48;;;22.17;;
51326;SDS011;37412;52.836;6.362;2023-04-06T12:20:13;29.88;;;22.92;;
51326;SDS011;37412;52.836;6.362;2023-04-06T12:22:59;28.23;;;22.35;;
51326;SDS011;37412;52.836;6.362;2023-04-06T12:25:45;26.95;;;20.83;;
51326;SDS011;37412;52.836;6.362;2023-04-06T12:28:31;24.60;;;20.10;;
51326;SDS011;37412;52.836;6.362;2023-04-06T12:31:18;26.43;;;19.90;;
51326;SDS011;37412;52.836;6.362;2023-04-06T12:34:04;24.92;;;19.75;;
51326;SDS011;37412;52.836;6.362;2023-04-06T12:36:51;27.58;;;20.35;;
51326;SDS011;37412;52.836;6.362;2023-04-06T12:39:37;25.27;;;19.48;;
51326;SDS011;37412;52.836;6.362;2023-04-06T12:42:23;25.23;;;19.92;;
51326;SDS011;37412;52.836;6.362;2023-04-06T12:45:09;25.20;;;19.50;;
51326;SDS011;37412;52.836;6.362;2023-04-06T12:47:55;19.23;;;15.07;;
51326;SDS011;37412;52.836;6.362;2023-04-06T12:50:41;21.63;;;16.10;;
51326;SDS011;37412;52.836;6.362;2023-04-06T12:53:27;22.55;;;18.30;;
51326;SDS011;37412;52.836;6.362;2023-04-06T12:56:14;22.75;;;18.48;;
51326;SDS011;37412;52.836;6.362;2023-04-06T12:59:02;21.00;;;16.43;;
51326;SDS011;37412;52.836;6.362;2023-04-06T13:01:48;20.75;;;15.82;;
51326;SDS011;37412;52.836;6.362;2023-04-06T13:04:34;19.10;;;14.75;;
51326;SDS011;37412;52.836;6.362;2023-04-06T13:07:20;17.27;;;13.87;;
51326;SDS011;37412;52.836;6.362;2023-04-06T13:10:07;16.63;;;13.27;;
51326;SDS011;37412;52.836;6.362;2023-04-06T13:12:53;17.17;;;14.02;;
51326;SDS011;37412;52.836;6.362;2023-04-06T13:15:39;17.60;;;13.77;;
51326;SDS011;37412;52.836;6.362;2023-04-06T13:18:25;17.70;;;13.93;;
51326;SDS011;37412;52.836;6.362;2023-04-06T13:21:13;17.88;;;14.30;;
51326;SDS011;37412;52.836;6.362;2023-04-06T13:24:02;18.03;;;14.73;;
51326;SDS011;37412;52.836;6.362;2023-04-06T13:26:48;17.92;;;14.15;;
51326;SDS011;37412;52.836;6.362;2023-04-06T13:29:34;16.73;;;13.50;;
51326;SDS011;37412;52.836;6.362;2023-04-06T13:32:20;14.63;;;12.38;;
51326;SDS011;37412;52.836;6.362;2023-04-06T13:35:06;15.48;;;12.38;;
51326;SDS011;37412;52.836;6.362;2023-04-06T13:37:53;13.95;;;10.82;;
51326;SDS011;37412;52.836;6.362;2023-04-06T13:40:40;14.10;;;11.63;;
51326;SDS011;37412;52.836;6.362;2023-04-06T13:43:26;13.68;;;11.30;;
51326;SDS011;37412;52.836;6.362;2023-04-06T13:46:12;14.55;;;12.05;;
51326;SDS011;37412;52.836;6.362;2023-04-06T13:48:58;14.77;;;12.63;;
51326;SDS011;37412;52.836;6.362;2023-04-06T13:51:44;17.42;;;12.85;;
51326;SDS011;37412;52.836;6.362;2023-04-06T13:54:30;16.77;;;14.70;;
51326;SDS011;37412;52.836;6.362;2023-04-06T13:57:16;18.85;;;14.45;;
51326;SDS011;37412;52.836;6.362;2023-04-06T14:00:02;18.60;;;15.68;;
51326;SDS011;37412;52.836;6.362;2023-04-06T14:02:48;17.35;;;15.40;;
51326;SDS011;37412;52.836;6.362;2023-04-06T14:05:34;19.80;;;15.80;;
51326;SDS011;37412;52.836;6.362;2023-04-06T14:08:20;16.00;;;14.25;;
51326;SDS011;37412;52.836;6.362;2023-04-06T14:11:10;16.20;;;13.43;;
51326;SDS011;37412;52.836;6.362;2023-04-06T14:13:57;15.65;;;12.57;;
51326;SDS011;37412;52.836;6.362;2023-04-06T14:16:43;14.60;;;12.55;;
51326;SDS011;37412;52.836;6.362;2023-04-06T14:19:32;14.43;;;12.35;;
51326;SDS011;37412;52.836;6.362;2023-04-06T14:22:17;15.45;;;13.48;;
51326;SDS011;37412;52.836;6.362;2023-04-06T14:25:03;17.80;;;12.80;;
51326;SDS011;37412;52.836;6.362;2023-04-06T14:27:50;16.48;;;13.65;;
51326;SDS011;37412;52.836;6.362;2023-04-06T14:30:35;17.42;;;14.18;;
51326;SDS011;37412;52.836;6.362;2023-04-06T14:33:22;20.13;;;15.93;;
51326;SDS011;37412;52.836;6.362;2023-04-06T14:36:08;18.43;;;16.00;;
51326;SDS011;37412;52.836;6.362;2023-04-06T14:38:56;19.35;;;16.75;;
51326;SDS011;37412;52.836;6.362;2023-04-06T14:41:42;19.17;;;17.15;;
51326;SDS011;37412;52.836;6.362;2023-04-06T14:44:28;21.15;;;16.85;;
51326;SDS011;37412;52.836;6.362;2023-04-06T14:47:14;20.63;;;16.83;;
51326;SDS011;37412;52.836;6.362;2023-04-06T14:50:05;21.38;;;17.60;;
51326;SDS011;37412;52.836;6.362;2023-04-06T14:52:52;21.83;;;17.98;;
51326;SDS011;37412;52.836;6.362;2023-04-06T14:55:41;23.20;;;17.95;;
51326;SDS011;37412;52.836;6.362;2023-04-06T14:58:27;22.00;;;18.70;;
51326;SDS011;37412;52.836;6.362;2023-04-06T15:01:13;21.98;;;18.95;;
51326;SDS011;37412;52.836;6.362;2023-04-06T15:03:59;24.42;;;19.75;;
51326;SDS011;37412;52.836;6.362;2023-04-06T15:06:45;24.80;;;20.88;;
51326;SDS011;37412;52.836;6.362;2023-04-06T15:09:31;26.38;;;21.20;;
51326;SDS011;37412;52.836;6.362;2023-04-06T15:12:16;27.67;;;22.42;;
51326;SDS011;37412;52.836;6.362;2023-04-06T15:15:02;25.40;;;21.40;;
51326;SDS011;37412;52.836;6.362;2023-04-06T15:17:50;26.70;;;22.40;;
51326;SDS011;37412;52.836;6.362;2023-04-06T15:20:36;26.65;;;23.73;;
51326;SDS011;37412;52.836;6.362;2023-04-06T15:23:22;27.42;;;24.30;;
51326;SDS011;37412;52.836;6.362;2023-04-06T15:26:08;29.77;;;23.27;;
51326;SDS011;37412;52.836;6.362;2023-04-06T15:28:54;29.57;;;24.80;;
51326;SDS011;37412;52.836;6.362;2023-04-06T15:31:40;28.58;;;23.33;;
51326;SDS011;37412;52.836;6.362;2023-04-06T15:34:26;28.33;;;25.23;;
51326;SDS011;37412;52.836;6.362;2023-04-06T15:37:15;28.83;;;25.15;;
51326;SDS011;37412;52.836;6.362;2023-04-06T15:40:01;26.60;;;23.40;;
51326;SDS011;37412;52.836;6.362;2023-04-06T15:42:47;27.88;;;23.80;;
51326;SDS011;37412;52.836;6.362;2023-04-06T15:45:33;27.67;;;23.50;;
51326;SDS011;37412;52.836;6.362;2023-04-06T15:48:20;27.83;;;23.90;;
51326;SDS011;37412;52.836;6.362;2023-04-06T15:51:07;27.38;;;22.90;;
51326;SDS011;37412;52.836;6.362;2023-04-06T15:53:54;28.75;;;23.80;;
51326;SDS011;37412;52.836;6.362;2023-04-06T15:56:39;28.15;;;23.55;;
51326;SDS011;37412;52.836;6.362;2023-04-06T15:59:25;26.98;;;23.38;;
51326;SDS011;37412;52.836;6.362;2023-04-06T16:02:11;28.08;;;22.25;;
51326;SDS011;37412;52.836;6.362;2023-04-06T16:04:57;28.15;;;23.02;;
51326;SDS011;37412;52.836;6.362;2023-04-06T16:07:47;26.45;;;21.92;;
51326;SDS011;37412;52.836;6.362;2023-04-06T16:10:33;25.80;;;21.17;;
51326;SDS011;37412;52.836;6.362;2023-04-06T16:13:19;25.52;;;21.42;;
51326;SDS011;37412;52.836;6.362;2023-04-06T16:16:05;23.55;;;20.25;;
51326;SDS011;37412;52.836;6.362;2023-04-06T16:18:52;26.63;;;21.13;;
51326;SDS011;37412;52.836;6.362;2023-04-06T16:21:38;18.30;;;14.55;;
51326;SDS011;37412;52.836;6.362;2023-04-06T16:24:24;17.17;;;13.90;;
51326;SDS011;37412;52.836;6.362;2023-04-06T16:27:10;14.82;;;13.10;;
51326;SDS011;37412;52.836;6.362;2023-04-06T16:29:56;16.55;;;13.82;;